Haviland, Ohio
Current Conditions -  °F | °C
As of 6:53 PM on Thursday 27 Nov 2014 (Local Time) from KDFI Reporting Station
Scattered Clouds Scattered Clouds  
Wind Chill: 22°   Ceiling: Unl
Heat Index: 30°   Visibility: 10mi
Dew Point: 22°   Wind: 9mph
Humidity: 72%   Direction: 300°WNW
Pressure: 30.28"   Gusts: NA
Location:  41.02°N, 84.58°W
Report Text: KDFI 272353Z AUTO 30008KT 10SM SCT070 M01/M06 A3028 RMK AO2 SLP264 60001 T10111056 10011 21011 53013
Loading
Personal Weather Stations






























Interactive Weather Map New forecast layout! Learn more

10-Day Weather Forecast

Advertisements
Track Severe Weather on mobile